sensor_id;sensor_type;location;lat;lon;timestamp;P1;durP1;ratioP1;P2;durP2;ratioP2
55987;SDS011;75964;50.930;4.514;2024-03-08T00:00:03;37.13;;;21.63;;
55987;SDS011;75964;50.930;4.514;2024-03-08T00:02:37;35.50;;;21.10;;
55987;SDS011;75964;50.930;4.514;2024-03-08T00:05:07;37.50;;;21.00;;
55987;SDS011;75964;50.930;4.514;2024-03-08T00:07:37;42.05;;;21.10;;
55987;SDS011;75964;50.930;4.514;2024-03-08T00:10:03;39.28;;;22.25;;
55987;SDS011;75964;50.930;4.514;2024-03-08T00:12:30;35.60;;;20.48;;
55987;SDS011;75964;50.930;4.514;2024-03-08T00:14:56;43.20;;;23.35;;
55987;SDS011;75964;50.930;4.514;2024-03-08T00:17:22;41.15;;;22.38;;
55987;SDS011;75964;50.930;4.514;2024-03-08T00:19:51;37.67;;;21.88;;
55987;SDS011;75964;50.930;4.514;2024-03-08T00:22:16;39.50;;;22.45;;
55987;SDS011;75964;50.930;4.514;2024-03-08T00:24:42;38.88;;;21.58;;
55987;SDS011;75964;50.930;4.514;2024-03-08T00:27:08;35.63;;;20.40;;
55987;SDS011;75964;50.930;4.514;2024-03-08T00:29:35;39.28;;;22.30;;
55987;SDS011;75964;50.930;4.514;2024-03-08T00:32:00;39.95;;;21.98;;
55987;SDS011;75964;50.930;4.514;2024-03-08T00:34:26;40.58;;;22.88;;
55987;SDS011;75964;50.930;4.514;2024-03-08T00:36:52;39.95;;;21.38;;
55987;SDS011;75964;50.930;4.514;2024-03-08T00:39:18;43.78;;;23.27;;
55987;SDS011;75964;50.930;4.514;2024-03-08T00:41:46;42.78;;;23.60;;
55987;SDS011;75964;50.930;4.514;2024-03-08T00:44:12;39.97;;;22.55;;
55987;SDS011;75964;50.930;4.514;2024-03-08T00:46:38;39.45;;;21.58;;
55987;SDS011;75964;50.930;4.514;2024-03-08T00:49:04;40.45;;;23.15;;
55987;SDS011;75964;50.930;4.514;2024-03-08T00:51:29;41.92;;;23.73;;
55987;SDS011;75964;50.930;4.514;2024-03-08T00:53:55;36.47;;;21.98;;
55987;SDS011;75964;50.930;4.514;2024-03-08T00:56:21;41.10;;;23.00;;
55987;SDS011;75964;50.930;4.514;2024-03-08T00:58:46;38.50;;;22.52;;
55987;SDS011;75964;50.930;4.514;2024-03-08T01:01:13;41.63;;;22.45;;
55987;SDS011;75964;50.930;4.514;2024-03-08T01:03:42;37.70;;;22.85;;
55987;SDS011;75964;50.930;4.514;2024-03-08T01:06:08;43.30;;;24.63;;
55987;SDS011;75964;50.930;4.514;2024-03-08T01:08:34;39.38;;;23.38;;
55987;SDS011;75964;50.930;4.514;2024-03-08T01:11:03;38.35;;;23.02;;
55987;SDS011;75964;50.930;4.514;2024-03-08T01:13:30;46.45;;;24.30;;
55987;SDS011;75964;50.930;4.514;2024-03-08T01:15:56;39.58;;;22.40;;
55987;SDS011;75964;50.930;4.514;2024-03-08T01:18:21;39.08;;;23.55;;
55987;SDS011;75964;50.930;4.514;2024-03-08T01:20:47;40.10;;;22.92;;
55987;SDS011;75964;50.930;4.514;2024-03-08T01:23:13;41.67;;;22.17;;
55987;SDS011;75964;50.930;4.514;2024-03-08T01:25:39;37.05;;;23.00;;
55987;SDS011;75964;50.930;4.514;2024-03-08T01:28:06;39.88;;;23.73;;
55987;SDS011;75964;50.930;4.514;2024-03-08T01:30:32;40.70;;;24.20;;
55987;SDS011;75964;50.930;4.514;2024-03-08T01:32:59;42.10;;;24.10;;
55987;SDS011;75964;50.930;4.514;2024-03-08T01:35:25;42.63;;;24.10;;
55987;SDS011;75964;50.930;4.514;2024-03-08T01:37:52;37.92;;;23.77;;
55987;SDS011;75964;50.930;4.514;2024-03-08T01:40:18;37.70;;;24.15;;
55987;SDS011;75964;50.930;4.514;2024-03-08T01:42:43;38.83;;;24.15;;
55987;SDS011;75964;50.930;4.514;2024-03-08T01:45:09;41.67;;;23.85;;
55987;SDS011;75964;50.930;4.514;2024-03-08T01:47:35;42.97;;;24.85;;
55987;SDS011;75964;50.930;4.514;2024-03-08T01:50:02;38.83;;;23.67;;
55987;SDS011;75964;50.930;4.514;2024-03-08T01:52:32;37.75;;;24.40;;
55987;SDS011;75964;50.930;4.514;2024-03-08T01:55:02;39.95;;;24.40;;
55987;SDS011;75964;50.930;4.514;2024-03-08T01:57:32;35.90;;;24.23;;
55987;SDS011;75964;50.930;4.514;2024-03-08T01:59:59;37.03;;;24.33;;
55987;SDS011;75964;50.930;4.514;2024-03-08T02:02:33;37.72;;;23.73;;
55987;SDS011;75964;50.930;4.514;2024-03-08T02:05:00;43.92;;;24.90;;
55987;SDS011;75964;50.930;4.514;2024-03-08T02:07:26;42.15;;;24.98;;
55987;SDS011;75964;50.930;4.514;2024-03-08T02:09:52;41.30;;;25.08;;
55987;SDS011;75964;50.930;4.514;2024-03-08T02:12:18;45.25;;;25.40;;
55987;SDS011;75964;50.930;4.514;2024-03-08T02:14:45;39.97;;;25.27;;
55987;SDS011;75964;50.930;4.514;2024-03-08T02:17:12;44.22;;;25.52;;
55987;SDS011;75964;50.930;4.514;2024-03-08T02:19:38;40.72;;;24.33;;
55987;SDS011;75964;50.930;4.514;2024-03-08T02:24:59;39.13;;;25.70;;
55987;SDS011;75964;50.930;4.514;2024-03-08T02:27:26;40.15;;;25.23;;
55987;SDS011;75964;50.930;4.514;2024-03-08T02:29:56;39.22;;;24.88;;
55987;SDS011;75964;50.930;4.514;2024-03-08T02:32:25;40.70;;;25.33;;
55987;SDS011;75964;50.930;4.514;2024-03-08T02:34:51;40.35;;;25.52;;
55987;SDS011;75964;50.930;4.514;2024-03-08T02:37:22;36.95;;;24.58;;
55987;SDS011;75964;50.930;4.514;2024-03-08T02:39:47;41.00;;;26.05;;
55987;SDS011;75964;50.930;4.514;2024-03-08T02:42:13;39.42;;;25.67;;
55987;SDS011;75964;50.930;4.514;2024-03-08T02:44:42;36.78;;;24.95;;
55987;SDS011;75964;50.930;4.514;2024-03-08T02:47:09;40.00;;;25.98;;
55987;SDS011;75964;50.930;4.514;2024-03-08T02:49:35;39.80;;;25.23;;
55987;SDS011;75964;50.930;4.514;2024-03-08T02:52:03;41.92;;;25.90;;
55987;SDS011;75964;50.930;4.514;2024-03-08T02:54:30;39.20;;;26.05;;
55987;SDS011;75964;50.930;4.514;2024-03-08T02:56:55;41.08;;;25.73;;
55987;SDS011;75964;50.930;4.514;2024-03-08T02:59:21;42.25;;;26.05;;
55987;SDS011;75964;50.930;4.514;2024-03-08T03:01:48;41.40;;;26.23;;
55987;SDS011;75964;50.930;4.514;2024-03-08T03:04:14;42.38;;;25.23;;
55987;SDS011;75964;50.930;4.514;2024-03-08T03:06:40;39.30;;;25.92;;
55987;SDS011;75964;50.930;4.514;2024-03-08T03:09:06;43.33;;;27.15;;
55987;SDS011;75964;50.930;4.514;2024-03-08T03:11:32;39.85;;;26.55;;
55987;SDS011;75964;50.930;4.514;2024-03-08T03:13:57;45.80;;;26.48;;
55987;SDS011;75964;50.930;4.514;2024-03-08T03:16:23;39.70;;;26.80;;
55987;SDS011;75964;50.930;4.514;2024-03-08T03:18:49;40.10;;;26.88;;
55987;SDS011;75964;50.930;4.514;2024-03-08T03:21:15;40.83;;;25.88;;
55987;SDS011;75964;50.930;4.514;2024-03-08T03:23:42;41.17;;;25.98;;
55987;SDS011;75964;50.930;4.514;2024-03-08T03:26:11;42.03;;;26.75;;
55987;SDS011;75964;50.930;4.514;2024-03-08T03:28:37;41.78;;;26.52;;
55987;SDS011;75964;50.930;4.514;2024-03-08T03:31:06;37.33;;;26.27;;
55987;SDS011;75964;50.930;4.514;2024-03-08T03:33:32;38.42;;;26.40;;
55987;SDS011;75964;50.930;4.514;2024-03-08T03:35:59;42.58;;;25.63;;
55987;SDS011;75964;50.930;4.514;2024-03-08T03:38:26;40.15;;;25.75;;
55987;SDS011;75964;50.930;4.514;2024-03-08T03:40:53;40.92;;;26.65;;
55987;SDS011;75964;50.930;4.514;2024-03-08T03:43:22;42.75;;;26.83;;
55987;SDS011;75964;50.930;4.514;2024-03-08T03:45:48;38.92;;;26.67;;
55987;SDS011;75964;50.930;4.514;2024-03-08T03:48:14;41.35;;;26.40;;
55987;SDS011;75964;50.930;4.514;2024-03-08T03:50:40;41.03;;;27.38;;
55987;SDS011;75964;50.930;4.514;2024-03-08T03:53:06;42.05;;;25.80;;
55987;SDS011;75964;50.930;4.514;2024-03-08T03:55:32;37.70;;;25.33;;
55987;SDS011;75964;50.930;4.514;2024-03-08T03:57:58;38.35;;;25.95;;
55987;SDS011;75964;50.930;4.514;2024-03-08T04:00:26;41.58;;;27.08;;
55987;SDS011;75964;50.930;4.514;2024-03-08T04:02:52;46.33;;;27.52;;
55987;SDS011;75964;50.930;4.514;2024-03-08T04:05:18;39.35;;;25.48;;
55987;SDS011;75964;50.930;4.514;2024-03-08T04:07:44;40.55;;;26.98;;
55987;SDS011;75964;50.930;4.514;2024-03-08T04:10:10;39.58;;;25.73;;
55987;SDS011;75964;50.930;4.514;2024-03-08T04:12:37;38.65;;;26.45;;
55987;SDS011;75964;50.930;4.514;2024-03-08T04:15:03;40.60;;;27.13;;
55987;SDS011;75964;50.930;4.514;2024-03-08T04:17:32;42.13;;;28.08;;
55987;SDS011;75964;50.930;4.514;2024-03-08T04:20:02;43.92;;;27.25;;
55987;SDS011;75964;50.930;4.514;2024-03-08T04:22:34;42.20;;;26.35;;
55987;SDS011;75964;50.930;4.514;2024-03-08T04:25:01;40.28;;;27.05;;
55987;SDS011;75964;50.930;4.514;2024-03-08T04:27:27;42.33;;;27.10;;
55987;SDS011;75964;50.930;4.514;2024-03-08T04:29:53;43.97;;;26.75;;
55987;SDS011;75964;50.930;4.514;2024-03-08T04:32:18;43.05;;;25.80;;
55987;SDS011;75964;50.930;4.514;2024-03-08T04:34:44;46.35;;;28.33;;
55987;SDS011;75964;50.930;4.514;2024-03-08T04:37:10;40.90;;;26.80;;
55987;SDS011;75964;50.930;4.514;2024-03-08T04:39:38;43.15;;;27.52;;
55987;SDS011;75964;50.930;4.514;2024-03-08T04:42:04;39.13;;;26.77;;
55987;SDS011;75964;50.930;4.514;2024-03-08T04:44:35;44.00;;;28.63;;
55987;SDS011;75964;50.930;4.514;2024-03-08T04:47:04;43.92;;;28.02;;
55987;SDS011;75964;50.930;4.514;2024-03-08T04:49:32;43.67;;;26.85;;
55987;SDS011;75964;50.930;4.514;2024-03-08T04:52:02;42.22;;;27.25;;
55987;SDS011;75964;50.930;4.514;2024-03-08T04:54:28;45.53;;;28.00;;
55987;SDS011;75964;50.930;4.514;2024-03-08T04:56:54;45.75;;;27.60;;
55987;SDS011;75964;50.930;4.514;2024-03-08T04:59:20;44.80;;;28.15;;
55987;SDS011;75964;50.930;4.514;2024-03-08T05:01:46;40.28;;;26.83;;
55987;SDS011;75964;50.930;4.514;2024-03-08T05:04:13;42.22;;;26.38;;
55987;SDS011;75964;50.930;4.514;2024-03-08T05:06:39;40.05;;;26.67;;
55987;SDS011;75964;50.930;4.514;2024-03-08T05:09:04;46.38;;;28.73;;
55987;SDS011;75964;50.930;4.514;2024-03-08T05:11:38;39.10;;;27.63;;
55987;SDS011;75964;50.930;4.514;2024-03-08T05:14:08;44.13;;;26.98;;
55987;SDS011;75964;50.930;4.514;2024-03-08T05:16:47;43.90;;;26.92;;
55987;SDS011;75964;50.930;4.514;2024-03-08T05:19:14;42.37;;;27.23;;
55987;SDS011;75964;50.930;4.514;2024-03-08T05:21:42;43.17;;;28.13;;
55987;SDS011;75964;50.930;4.514;2024-03-08T05:24:09;40.70;;;26.98;;
55987;SDS011;75964;50.930;4.514;2024-03-08T05:26:35;45.25;;;28.40;;
55987;SDS011;75964;50.930;4.514;2024-03-08T05:29:02;43.40;;;27.50;;
55987;SDS011;75964;50.930;4.514;2024-03-08T05:31:28;42.97;;;27.10;;
55987;SDS011;75964;50.930;4.514;2024-03-08T05:33:57;43.58;;;27.20;;
55987;SDS011;75964;50.930;4.514;2024-03-08T05:36:23;45.38;;;27.95;;
55987;SDS011;75964;50.930;4.514;2024-03-08T05:38:49;42.30;;;26.60;;
55987;SDS011;75964;50.930;4.514;2024-03-08T05:41:15;46.95;;;28.75;;
55987;SDS011;75964;50.930;4.514;2024-03-08T05:43:42;44.88;;;27.67;;
55987;SDS011;75964;50.930;4.514;2024-03-08T05:46:09;45.05;;;28.77;;
55987;SDS011;75964;50.930;4.514;2024-03-08T05:48:36;44.58;;;26.45;;
55987;SDS011;75964;50.930;4.514;2024-03-08T05:51:02;42.58;;;26.95;;
55987;SDS011;75964;50.930;4.514;2024-03-08T05:53:29;43.17;;;27.00;;
55987;SDS011;75964;50.930;4.514;2024-03-08T05:55:58;32.58;;;20.42;;
55987;SDS011;75964;50.930;4.514;2024-03-08T05:58:24;41.60;;;26.05;;
55987;SDS011;75964;50.930;4.514;2024-03-08T06:00:49;44.25;;;28.08;;
55987;SDS011;75964;50.930;4.514;2024-03-08T06:03:15;45.45;;;27.60;;
55987;SDS011;75964;50.930;4.514;2024-03-08T06:05:41;44.28;;;27.58;;
55987;SDS011;75964;50.930;4.514;2024-03-08T06:08:07;43.55;;;26.58;;
55987;SDS011;75964;50.930;4.514;2024-03-08T06:10:33;42.95;;;27.40;;
55987;SDS011;75964;50.930;4.514;2024-03-08T06:12:58;44.20;;;27.55;;
55987;SDS011;75964;50.930;4.514;2024-03-08T06:15:25;43.75;;;26.42;;
55987;SDS011;75964;50.930;4.514;2024-03-08T06:17:50;50.65;;;27.63;;
55987;SDS011;75964;50.930;4.514;2024-03-08T06:20:17;49.45;;;27.77;;
55987;SDS011;75964;50.930;4.514;2024-03-08T06:22:43;44.08;;;28.13;;
55987;SDS011;75964;50.930;4.514;2024-03-08T06:25:10;47.85;;;28.35;;
55987;SDS011;75964;50.930;4.514;2024-03-08T06:27:39;46.80;;;27.45;;
55987;SDS011;75964;50.930;4.514;2024-03-08T06:30:08;50.90;;;28.95;;
55987;SDS011;75964;50.930;4.514;2024-03-08T06:32:35;47.28;;;28.65;;
55987;SDS011;75964;50.930;4.514;2024-03-08T06:35:02;44.70;;;28.40;;
55987;SDS011;75964;50.930;4.514;2024-03-08T06:37:32;45.90;;;27.67;;
55987;SDS011;75964;50.930;4.514;2024-03-08T06:39:58;42.30;;;26.40;;
55987;SDS011;75964;50.930;4.514;2024-03-08T06:42:25;44.13;;;28.13;;
55987;SDS011;75964;50.930;4.514;2024-03-08T06:44:52;41.35;;;26.75;;
55987;SDS011;75964;50.930;4.514;2024-03-08T06:47:20;45.20;;;26.08;;
55987;SDS011;75964;50.930;4.514;2024-03-08T06:49:46;45.17;;;28.23;;
55987;SDS011;75964;50.930;4.514;2024-03-08T06:52:12;44.92;;;26.90;;
55987;SDS011;75964;50.930;4.514;2024-03-08T06:54:37;42.95;;;27.38;;
55987;SDS011;75964;50.930;4.514;2024-03-08T06:57:04;43.90;;;28.20;;
55987;SDS011;75964;50.930;4.514;2024-03-08T06:59:30;47.22;;;28.52;;
55987;SDS011;75964;50.930;4.514;2024-03-08T07:01:56;45.10;;;28.25;;
55987;SDS011;75964;50.930;4.514;2024-03-08T07:04:22;43.35;;;26.98;;
55987;SDS011;75964;50.930;4.514;2024-03-08T07:06:51;46.17;;;28.35;;
55987;SDS011;75964;50.930;4.514;2024-03-08T07:09:17;48.38;;;27.52;;
55987;SDS011;75964;50.930;4.514;2024-03-08T07:11:43;43.92;;;26.48;;
55987;SDS011;75964;50.930;4.514;2024-03-08T07:14:08;41.42;;;25.52;;
55987;SDS011;75964;50.930;4.514;2024-03-08T07:16:34;41.90;;;25.90;;
55987;SDS011;75964;50.930;4.514;2024-03-08T07:19:04;45.55;;;26.35;;
55987;SDS011;75964;50.930;4.514;2024-03-08T07:21:30;42.67;;;26.38;;
55987;SDS011;75964;50.930;4.514;2024-03-08T07:23:56;46.50;;;28.67;;
55987;SDS011;75964;50.930;4.514;2024-03-08T07:26:24;43.67;;;26.20;;
55987;SDS011;75964;50.930;4.514;2024-03-08T07:28:50;40.65;;;24.92;;
55987;SDS011;75964;50.930;4.514;2024-03-08T07:31:16;44.88;;;27.60;;
55987;SDS011;75964;50.930;4.514;2024-03-08T07:33:42;41.40;;;25.13;;
55987;SDS011;75964;50.930;4.514;2024-03-08T07:36:07;42.17;;;27.15;;
55987;SDS011;75964;50.930;4.514;2024-03-08T07:38:33;45.70;;;26.58;;
55987;SDS011;75964;50.930;4.514;2024-03-08T07:40:59;43.53;;;24.95;;
55987;SDS011;75964;50.930;4.514;2024-03-08T07:43:25;45.03;;;26.33;;
55987;SDS011;75964;50.930;4.514;2024-03-08T07:45:51;43.35;;;25.40;;
55987;SDS011;75964;50.930;4.514;2024-03-08T07:48:20;41.70;;;25.48;;
55987;SDS011;75964;50.930;4.514;2024-03-08T07:50:46;45.95;;;26.23;;
55987;SDS011;75964;50.930;4.514;2024-03-08T07:53:12;46.15;;;25.55;;
55987;SDS011;75964;50.930;4.514;2024-03-08T07:55:37;43.50;;;25.17;;
55987;SDS011;75964;50.930;4.514;2024-03-08T07:58:04;42.05;;;25.60;;
55987;SDS011;75964;50.930;4.514;2024-03-08T08:00:31;41.95;;;25.85;;
55987;SDS011;75964;50.930;4.514;2024-03-08T08:02:57;42.92;;;25.52;;
55987;SDS011;75964;50.930;4.514;2024-03-08T08:05:22;39.15;;;25.35;;
55987;SDS011;75964;50.930;4.514;2024-03-08T08:07:48;41.42;;;24.95;;
55987;SDS011;75964;50.930;4.514;2024-03-08T08:10:15;36.22;;;23.90;;
55987;SDS011;75964;50.930;4.514;2024-03-08T08:12:49;42.90;;;24.15;;
55987;SDS011;75964;50.930;4.514;2024-03-08T08:15:15;39.25;;;24.70;;
55987;SDS011;75964;50.930;4.514;2024-03-08T08:17:44;42.70;;;24.67;;
55987;SDS011;75964;50.930;4.514;2024-03-08T08:20:10;39.33;;;23.98;;
55987;SDS011;75964;50.930;4.514;2024-03-08T08:22:38;38.92;;;23.92;;
55987;SDS011;75964;50.930;4.514;2024-03-08T08:25:10;39.60;;;24.15;;
55987;SDS011;75964;50.930;4.514;2024-03-08T08:27:45;36.78;;;22.55;;
55987;SDS011;75964;50.930;4.514;2024-03-08T08:30:12;36.78;;;23.35;;
55987;SDS011;75964;50.930;4.514;2024-03-08T08:32:38;39.15;;;24.77;;
55987;SDS011;75964;50.930;4.514;2024-03-08T08:35:05;37.45;;;23.05;;
55987;SDS011;75964;50.930;4.514;2024-03-08T08:37:32;38.55;;;22.70;;
55987;SDS011;75964;50.930;4.514;2024-03-08T08:40:00;36.08;;;22.05;;
55987;SDS011;75964;50.930;4.514;2024-03-08T08:42:30;37.88;;;22.77;;
55987;SDS011;75964;50.930;4.514;2024-03-08T08:44:57;33.30;;;20.75;;
55987;SDS011;75964;50.930;4.514;2024-03-08T08:47:22;36.72;;;22.02;;
55987;SDS011;75964;50.930;4.514;2024-03-08T08:49:49;37.95;;;23.13;;
55987;SDS011;75964;50.930;4.514;2024-03-08T08:52:15;34.40;;;21.42;;
55987;SDS011;75964;50.930;4.514;2024-03-08T08:54:42;33.90;;;22.17;;
55987;SDS011;75964;50.930;4.514;2024-03-08T08:57:08;34.50;;;21.73;;
55987;SDS011;75964;50.930;4.514;2024-03-08T08:59:34;32.65;;;21.00;;
55987;SDS011;75964;50.930;4.514;2024-03-08T09:02:05;33.33;;;20.92;;
55987;SDS011;75964;50.930;4.514;2024-03-08T09:04:32;31.15;;;20.55;;
55987;SDS011;75964;50.930;4.514;2024-03-08T09:06:58;35.80;;;21.80;;
55987;SDS011;75964;50.930;4.514;2024-03-08T09:09:23;35.45;;;20.60;;
55987;SDS011;75964;50.930;4.514;2024-03-08T09:11:50;32.80;;;20.95;;
55987;SDS011;75964;50.930;4.514;2024-03-08T09:14:16;33.42;;;20.63;;
55987;SDS011;75964;50.930;4.514;2024-03-08T09:16:42;33.15;;;20.90;;
55987;SDS011;75964;50.930;4.514;2024-03-08T09:19:08;32.83;;;20.67;;
55987;SDS011;75964;50.930;4.514;2024-03-08T09:21:36;32.25;;;20.38;;
55987;SDS011;75964;50.930;4.514;2024-03-08T09:24:02;34.65;;;19.85;;
55987;SDS011;75964;50.930;4.514;2024-03-08T09:26:28;30.50;;;19.05;;
55987;SDS011;75964;50.930;4.514;2024-03-08T09:28:54;28.65;;;19.25;;
55987;SDS011;75964;50.930;4.514;2024-03-08T09:31:20;32.28;;;20.38;;
55987;SDS011;75964;50.930;4.514;2024-03-08T09:33:46;32.17;;;20.40;;
55987;SDS011;75964;50.930;4.514;2024-03-08T09:36:12;31.58;;;19.88;;
55987;SDS011;75964;50.930;4.514;2024-03-08T09:38:39;30.23;;;19.50;;
55987;SDS011;75964;50.930;4.514;2024-03-08T09:41:05;27.00;;;18.63;;
55987;SDS011;75964;50.930;4.514;2024-03-08T09:43:31;28.02;;;18.73;;
55987;SDS011;75964;50.930;4.514;2024-03-08T09:45:57;31.63;;;19.08;;
55987;SDS011;75964;50.930;4.514;2024-03-08T09:48:24;28.90;;;19.25;;
55987;SDS011;75964;50.930;4.514;2024-03-08T09:50:51;30.02;;;19.38;;
55987;SDS011;75964;50.930;4.514;2024-03-08T09:53:17;26.58;;;18.55;;
55987;SDS011;75964;50.930;4.514;2024-03-08T09:55:43;28.63;;;18.55;;
55987;SDS011;75964;50.930;4.514;2024-03-08T09:58:14;27.13;;;17.85;;
55987;SDS011;75964;50.930;4.514;2024-03-08T10:00:42;31.02;;;18.70;;
55987;SDS011;75964;50.930;4.514;2024-03-08T10:03:08;29.98;;;18.75;;
55987;SDS011;75964;50.930;4.514;2024-03-08T10:05:35;27.17;;;17.88;;
55987;SDS011;75964;50.930;4.514;2024-03-08T10:08:00;26.85;;;18.17;;
55987;SDS011;75964;50.930;4.514;2024-03-08T10:10:26;26.45;;;17.98;;
55987;SDS011;75964;50.930;4.514;2024-03-08T10:12:52;28.50;;;18.25;;
55987;SDS011;75964;50.930;4.514;2024-03-08T10:15:17;24.83;;;16.15;;
55987;SDS011;75964;50.930;4.514;2024-03-08T10:17:45;28.08;;;17.58;;
55987;SDS011;75964;50.930;4.514;2024-03-08T10:20:14;27.77;;;17.55;;
55987;SDS011;75964;50.930;4.514;2024-03-08T10:22:40;29.67;;;18.23;;
55987;SDS011;75964;50.930;4.514;2024-03-08T10:25:10;32.22;;;17.60;;
55987;SDS011;75964;50.930;4.514;2024-03-08T10:27:39;25.20;;;16.20;;
55987;SDS011;75964;50.930;4.514;2024-03-08T10:30:06;25.88;;;17.35;;
55987;SDS011;75964;50.930;4.514;2024-03-08T10:32:39;27.88;;;16.83;;
55987;SDS011;75964;50.930;4.514;2024-03-08T10:35:06;26.55;;;16.67;;
55987;SDS011;75964;50.930;4.514;2024-03-08T10:37:58;24.77;;;16.50;;
55987;SDS011;75964;50.930;4.514;2024-03-08T10:40:28;25.90;;;17.05;;
55987;SDS011;75964;50.930;4.514;2024-03-08T10:48:25;26.58;;;16.50;;
55987;SDS011;75964;50.930;4.514;2024-03-08T10:50:56;28.00;;;15.73;;
55987;SDS011;75964;50.930;4.514;2024-03-08T10:53:27;25.33;;;16.60;;
55987;SDS011;75964;50.930;4.514;2024-03-08T10:55:57;27.95;;;17.23;;
55987;SDS011;75964;50.930;4.514;2024-03-08T10:58:24;25.75;;;16.92;;
55987;SDS011;75964;50.930;4.514;2024-03-08T11:00:52;25.50;;;16.52;;
55987;SDS011;75964;50.930;4.514;2024-03-08T11:06:14;27.67;;;17.40;;
55987;SDS011;75964;50.930;4.514;2024-03-08T11:09:00;23.73;;;15.90;;
55987;SDS011;75964;50.930;4.514;2024-03-08T11:11:30;26.55;;;16.77;;
55987;SDS011;75964;50.930;4.514;2024-03-08T11:13:57;23.15;;;16.52;;
55987;SDS011;75964;50.930;4.514;2024-03-08T11:18:54;24.85;;;16.63;;
55987;SDS011;75964;50.930;4.514;2024-03-08T11:21:20;24.95;;;16.92;;
55987;SDS011;75964;50.930;4.514;2024-03-08T11:24:06;25.00;;;16.10;;
55987;SDS011;75964;50.930;4.514;2024-03-08T11:26:37;26.92;;;17.50;;
55987;SDS011;75964;50.930;4.514;2024-03-08T11:32:19;26.33;;;16.55;;
55987;SDS011;75964;50.930;4.514;2024-03-08T11:34:47;23.13;;;16.10;;
55987;SDS011;75964;50.930;4.514;2024-03-08T11:37:15;26.55;;;16.58;;
55987;SDS011;75964;50.930;4.514;2024-03-08T11:39:46;21.95;;;16.23;;
55987;SDS011;75964;50.930;4.514;2024-03-08T11:42:13;26.13;;;17.52;;
55987;SDS011;75964;50.930;4.514;2024-03-08T11:44:40;28.30;;;17.20;;
55987;SDS011;75964;50.930;4.514;2024-03-08T11:47:09;26.13;;;16.67;;
55987;SDS011;75964;50.930;4.514;2024-03-08T11:49:39;23.50;;;16.75;;
55987;SDS011;75964;50.930;4.514;2024-03-08T11:52:12;27.00;;;17.38;;
55987;SDS011;75964;50.930;4.514;2024-03-08T11:54:41;25.65;;;15.93;;
55987;SDS011;75964;50.930;4.514;2024-03-08T11:57:12;24.25;;;16.33;;
55987;SDS011;75964;50.930;4.514;2024-03-08T11:59:38;25.67;;;16.52;;
55987;SDS011;75964;50.930;4.514;2024-03-08T12:02:04;23.33;;;16.08;;
55987;SDS011;75964;50.930;4.514;2024-03-08T12:04:31;24.13;;;16.98;;
55987;SDS011;75964;50.930;4.514;2024-03-08T12:07:01;25.20;;;16.08;;
55987;SDS011;75964;50.930;4.514;2024-03-08T12:09:33;25.80;;;16.17;;
55987;SDS011;75964;50.930;4.514;2024-03-08T12:12:01;26.00;;;17.35;;
55987;SDS011;75964;50.930;4.514;2024-03-08T12:14:31;25.13;;;16.15;;
55987;SDS011;75964;50.930;4.514;2024-03-08T12:16:58;29.08;;;16.35;;
55987;SDS011;75964;50.930;4.514;2024-03-08T12:19:29;25.27;;;16.92;;
55987;SDS011;75964;50.930;4.514;2024-03-08T12:21:55;23.95;;;15.65;;
55987;SDS011;75964;50.930;4.514;2024-03-08T12:24:21;23.90;;;14.90;;
55987;SDS011;75964;50.930;4.514;2024-03-08T12:26:47;29.92;;;16.52;;
55987;SDS011;75964;50.930;4.514;2024-03-08T12:29:17;24.48;;;15.65;;
55987;SDS011;75964;50.930;4.514;2024-03-08T12:31:48;23.35;;;16.27;;
55987;SDS011;75964;50.930;4.514;2024-03-08T12:34:20;23.02;;;16.08;;
55987;SDS011;75964;50.930;4.514;2024-03-08T12:36:46;26.83;;;16.05;;
55987;SDS011;75964;50.930;4.514;2024-03-08T12:39:13;27.15;;;16.98;;
55987;SDS011;75964;50.930;4.514;2024-03-08T12:41:43;29.60;;;16.60;;
55987;SDS011;75964;50.930;4.514;2024-03-08T12:44:09;21.90;;;16.05;;
55987;SDS011;75964;50.930;4.514;2024-03-08T12:46:36;23.55;;;15.90;;
55987;SDS011;75964;50.930;4.514;2024-03-08T12:49:08;23.25;;;15.90;;
55987;SDS011;75964;50.930;4.514;2024-03-08T12:54:01;22.88;;;15.40;;
55987;SDS011;75964;50.930;4.514;2024-03-08T12:56:30;26.52;;;15.25;;
55987;SDS011;75964;50.930;4.514;2024-03-08T12:58:58;28.90;;;17.48;;
55987;SDS011;75964;50.930;4.514;2024-03-08T13:01:28;25.92;;;16.60;;
55987;SDS011;75964;50.930;4.514;2024-03-08T13:03:54;29.33;;;17.15;;
55987;SDS011;75964;50.930;4.514;2024-03-08T13:06:20;23.25;;;16.02;;
55987;SDS011;75964;50.930;4.514;2024-03-08T13:08:49;22.58;;;16.02;;
55987;SDS011;75964;50.930;4.514;2024-03-08T13:11:16;26.85;;;16.48;;
55987;SDS011;75964;50.930;4.514;2024-03-08T13:13:42;26.25;;;16.30;;
55987;SDS011;75964;50.930;4.514;2024-03-08T13:16:09;23.70;;;15.20;;
55987;SDS011;75964;50.930;4.514;2024-03-08T13:18:37;23.67;;;16.27;;
55987;SDS011;75964;50.930;4.514;2024-03-08T13:21:03;27.67;;;15.85;;
55987;SDS011;75964;50.930;4.514;2024-03-08T13:23:35;27.67;;;16.15;;
55987;SDS011;75964;50.930;4.514;2024-03-08T13:26:08;22.50;;;15.63;;
55987;SDS011;75964;50.930;4.514;2024-03-08T13:28:41;26.65;;;16.63;;
55987;SDS011;75964;50.930;4.514;2024-03-08T13:31:08;23.20;;;16.05;;
55987;SDS011;75964;50.930;4.514;2024-03-08T13:33:36;26.67;;;16.10;;
55987;SDS011;75964;50.930;4.514;2024-03-08T13:36:07;24.67;;;16.30;;
55987;SDS011;75964;50.930;4.514;2024-03-08T13:38:43;23.80;;;16.08;;
55987;SDS011;75964;50.930;4.514;2024-03-08T13:41:10;24.77;;;16.80;;
55987;SDS011;75964;50.930;4.514;2024-03-08T13:43:37;23.45;;;15.43;;
55987;SDS011;75964;50.930;4.514;2024-03-08T13:46:03;21.60;;;15.15;;
55987;SDS011;75964;50.930;4.514;2024-03-08T13:48:29;23.77;;;16.88;;
55987;SDS011;75964;50.930;4.514;2024-03-08T13:50:56;26.95;;;17.60;;
55987;SDS011;75964;50.930;4.514;2024-03-08T13:53:22;25.00;;;16.00;;
55987;SDS011;75964;50.930;4.514;2024-03-08T13:55:49;24.17;;;15.13;;
55987;SDS011;75964;50.930;4.514;2024-03-08T13:58:15;23.83;;;15.18;;
55987;SDS011;75964;50.930;4.514;2024-03-08T14:00:41;23.55;;;15.32;;
55987;SDS011;75964;50.930;4.514;2024-03-08T14:03:09;23.42;;;16.08;;
55987;SDS011;75964;50.930;4.514;2024-03-08T14:05:40;24.42;;;15.50;;
55987;SDS011;75964;50.930;4.514;2024-03-08T14:08:07;22.65;;;15.38;;
55987;SDS011;75964;50.930;4.514;2024-03-08T14:10:34;21.75;;;14.98;;
55987;SDS011;75964;50.930;4.514;2024-03-08T14:13:02;28.88;;;15.32;;
55987;SDS011;75964;50.930;4.514;2024-03-08T14:15:32;25.42;;;15.95;;
55987;SDS011;75964;50.930;4.514;2024-03-08T14:18:06;28.38;;;15.82;;
55987;SDS011;75964;50.930;4.514;2024-03-08T14:20:32;24.02;;;15.65;;
55987;SDS011;75964;50.930;4.514;2024-03-08T14:22:58;21.98;;;14.60;;
55987;SDS011;75964;50.930;4.514;2024-03-08T14:25:23;25.83;;;14.52;;
55987;SDS011;75964;50.930;4.514;2024-03-08T14:27:50;21.60;;;14.00;;
55987;SDS011;75964;50.930;4.514;2024-03-08T14:30:23;24.73;;;15.13;;
55987;SDS011;75964;50.930;4.514;2024-03-08T14:32:59;28.33;;;14.60;;
55987;SDS011;75964;50.930;4.514;2024-03-08T14:35:34;22.88;;;15.25;;
55987;SDS011;75964;50.930;4.514;2024-03-08T14:38:01;19.98;;;14.45;;
55987;SDS011;75964;50.930;4.514;2024-03-08T14:40:27;22.58;;;15.20;;